createdAt,value
2023-04-13T00:00:39.774Z,6.30
2023-04-13T00:03:13.944Z,6.27
2023-04-13T00:05:46.949Z,6.32
2023-04-13T00:08:23.522Z,6.41
2023-04-13T00:10:55.819Z,6.43
2023-04-13T00:13:28.003Z,6.46
2023-04-13T00:16:01.573Z,6.43
2023-04-13T00:18:33.693Z,6.43
2023-04-13T00:21:06.438Z,6.40
2023-04-13T00:23:38.816Z,6.41
2023-04-13T00:26:11.377Z,6.33
2023-04-13T00:28:43.842Z,6.28
2023-04-13T00:31:16.637Z,6.29
2023-04-13T00:33:48.901Z,6.21
2023-04-13T00:36:24.714Z,6.22
2023-04-13T00:38:57.642Z,6.19
2023-04-13T00:41:29.777Z,6.21
2023-04-13T00:44:02.475Z,6.21
2023-04-13T00:46:35.378Z,6.19
2023-04-13T00:49:08.528Z,6.17
2023-04-13T00:51:40.993Z,6.17
2023-04-13T00:54:17.159Z,6.17
2023-04-13T00:56:50.271Z,6.14
2023-04-13T00:59:23.985Z,6.20
2023-04-13T01:02:02.306Z,6.22
2023-04-13T01:04:38.007Z,6.06
2023-04-13T01:07:21.576Z,6.09
2023-04-13T01:10:20.532Z,6.01
2023-04-13T01:13:19.828Z,6.01
2023-04-13T01:16:16.968Z,6.04
2023-04-13T01:18:54.026Z,5.96
2023-04-13T01:21:29.727Z,5.79
2023-04-13T01:24:36.410Z,5.80
2023-04-13T01:27:20.849Z,5.76
2023-04-13T01:29:58.904Z,5.79
2023-04-13T01:32:33.534Z,5.82
2023-04-13T01:35:10.873Z,5.78
2023-04-13T01:37:43.456Z,5.84
2023-04-13T01:40:15.835Z,5.88
2023-04-13T01:42:48.150Z,5.90
2023-04-13T01:45:25.946Z,5.96
2023-04-13T01:48:36.372Z,5.88
2023-04-13T01:51:12.220Z,5.87
2023-04-13T01:53:53.887Z,5.90
2023-04-13T01:56:26.783Z,5.93
2023-04-13T01:59:02.119Z,5.95
2023-04-13T02:01:34.691Z,5.98
2023-04-13T02:04:07.948Z,5.84
2023-04-13T02:06:41.158Z,5.86
2023-04-13T02:09:13.543Z,5.89
2023-04-13T02:11:45.657Z,5.91
2023-04-13T02:14:17.834Z,5.90
2023-04-13T02:16:50.217Z,5.94
2023-04-13T02:19:22.446Z,5.95
2023-04-13T02:21:55.758Z,5.95
2023-04-13T02:24:27.882Z,5.83
2023-04-13T02:27:02.284Z,5.87
2023-04-13T02:29:34.637Z,5.86
2023-04-13T02:32:07.063Z,5.77
2023-04-13T02:34:39.341Z,5.75
2023-04-13T02:37:11.600Z,5.72
2023-04-13T02:39:47.032Z,5.75
2023-04-13T02:42:19.473Z,5.80
2023-04-13T02:44:51.591Z,5.81
2023-04-13T02:47:23.731Z,5.81
2023-04-13T02:49:56.051Z,5.80
2023-04-13T02:52:28.458Z,5.86
2023-04-13T02:55:01.381Z,5.80
2023-04-13T02:57:34.452Z,5.91
2023-04-13T03:00:10.942Z,6.00
2023-04-13T03:02:43.169Z,6.02
2023-04-13T03:05:16.003Z,6.01
2023-04-13T03:07:48.182Z,6.06
2023-04-13T03:10:20.515Z,6.15
2023-04-13T03:12:52.672Z,6.13
2023-04-13T03:15:24.991Z,6.23
2023-04-13T03:18:00.351Z,6.28
2023-04-13T03:20:32.842Z,6.26
2023-04-13T03:23:06.012Z,6.26
2023-04-13T03:25:38.244Z,6.31
2023-04-13T03:28:10.448Z,6.31
2023-04-13T03:30:42.628Z,6.30
2023-04-13T03:33:17.634Z,6.29
2023-04-13T03:35:49.807Z,6.32
2023-04-13T03:38:21.881Z,6.42
2023-04-13T03:40:54.058Z,6.46
2023-04-13T03:43:26.295Z,6.48
2023-04-13T03:45:59.188Z,6.56
2023-04-13T03:48:31.303Z,6.64
2023-04-13T03:51:03.531Z,6.59
2023-04-13T03:53:37.162Z,6.58
2023-04-13T03:56:09.822Z,6.61
2023-04-13T03:58:42.348Z,6.59
2023-04-13T04:01:14.451Z,6.56
2023-04-13T04:03:46.580Z,6.56
2023-04-13T04:06:18.690Z,6.55
2023-04-13T04:08:51.573Z,6.57
2023-04-13T04:11:23.746Z,6.49
2023-04-13T04:13:55.805Z,6.40
2023-04-13T04:16:27.901Z,6.39
2023-04-13T04:19:00.041Z,6.41
2023-04-13T04:21:34.702Z,6.48
2023-04-13T04:24:12.647Z,6.48
2023-04-13T04:26:50.583Z,6.49
2023-04-13T04:29:22.868Z,6.48
2023-04-13T04:31:55.007Z,6.52
2023-04-13T04:34:27.054Z,6.54
2023-04-13T04:37:03.160Z,6.52
2023-04-13T04:39:44.348Z,6.45
2023-04-13T04:42:19.013Z,6.55
2023-04-13T04:44:51.160Z,6.57
2023-04-13T04:47:24.728Z,6.54
2023-04-13T04:49:58.155Z,6.60
2023-04-13T04:52:33.174Z,6.61
2023-04-13T04:55:06.541Z,6.60
2023-04-13T04:57:38.673Z,6.73
2023-04-13T05:00:15.741Z,6.84
2023-04-13T05:02:50.237Z,6.83
2023-04-13T05:05:22.796Z,6.85
2023-04-13T05:07:55.005Z,6.80
2023-04-13T05:10:29.248Z,6.74
2023-04-13T05:13:57.345Z,6.84
2023-04-13T05:16:30.939Z,6.85
2023-04-13T05:19:03.470Z,6.81
2023-04-13T05:21:35.540Z,6.86
2023-04-13T05:24:08.031Z,6.88
2023-04-13T05:26:40.089Z,6.83
2023-04-13T05:29:12.177Z,6.84
2023-04-13T05:31:44.234Z,6.93
2023-04-13T05:34:16.815Z,7.12
2023-04-13T05:37:20.573Z,7.03
2023-04-13T05:39:53.765Z,7.05
2023-04-13T05:42:25.863Z,7.00
2023-04-13T05:44:58.037Z,6.93
2023-04-13T05:47:30.169Z,6.94
2023-04-13T05:50:02.952Z,7.01
2023-04-13T05:52:35.250Z,6.98
2023-04-13T05:55:07.717Z,6.95
2023-04-13T05:57:40.279Z,6.99
2023-04-13T06:00:13.439Z,6.90
2023-04-13T06:02:49.366Z,6.89
2023-04-13T06:05:22.467Z,6.99
2023-04-13T06:07:54.568Z,7.04
2023-04-13T06:10:26.869Z,7.08
2023-04-13T06:13:00.846Z,7.03
2023-04-13T06:15:33.297Z,6.99
2023-04-13T06:18:05.547Z,7.02
2023-04-13T06:20:37.616Z,7.02
2023-04-13T06:23:09.826Z,7.12
2023-04-13T06:25:42.273Z,7.29
2023-04-13T06:28:14.403Z,7.24
2023-04-13T06:30:47.297Z,7.30
2023-04-13T06:33:19.333Z,7.29
2023-04-13T06:35:52.375Z,7.21
2023-04-13T06:38:24.854Z,7.25
2023-04-13T06:41:02.607Z,7.31
2023-04-13T06:43:34.701Z,7.21
2023-04-13T06:46:08.111Z,7.28
2023-04-13T06:48:41.164Z,7.31
2023-04-13T06:51:13.320Z,7.41
2023-04-13T06:53:51.659Z,7.46
2023-04-13T06:56:23.840Z,7.63
2023-04-13T06:59:02.593Z,7.87
2023-04-13T07:01:35.443Z,8.05
2023-04-13T07:04:08.015Z,8.01
2023-04-13T07:06:40.192Z,8.14
2023-04-13T07:09:12.335Z,8.23
2023-04-13T07:11:47.333Z,8.26
2023-04-13T07:14:19.407Z,8.22
2023-04-13T07:16:51.642Z,8.34
2023-04-13T07:19:25.756Z,8.49
2023-04-13T07:22:00.173Z,8.65
2023-04-13T07:24:34.625Z,8.65
2023-04-13T07:27:47.649Z,8.62
2023-04-13T07:31:17.451Z,8.76
2023-04-13T07:33:49.680Z,8.75
2023-04-13T07:36:21.846Z,8.80
2023-04-13T07:38:53.978Z,8.93
2023-04-13T07:41:26.057Z,9.03
2023-04-13T07:43:58.146Z,9.12
2023-04-13T07:46:30.434Z,9.53
2023-04-13T07:49:02.751Z,9.61
2023-04-13T07:51:35.889Z,9.42
2023-04-13T07:54:08.456Z,9.59
2023-04-13T07:56:41.540Z,9.70
2023-04-13T07:59:14.442Z,9.64
2023-04-13T08:01:46.697Z,9.87
2023-04-13T08:04:19.090Z,10.26
2023-04-13T08:06:51.341Z,10.38
2023-04-13T08:09:23.499Z,10.52
2023-04-13T08:11:55.643Z,10.63
2023-04-13T08:14:27.825Z,10.61
2023-04-13T08:17:02.539Z,10.96
2023-04-13T08:19:36.378Z,10.67
2023-04-13T08:22:11.628Z,10.42
2023-04-13T08:24:44.316Z,10.52
2023-04-13T08:27:16.540Z,10.25
2023-04-13T08:29:55.802Z,10.53
2023-04-13T08:32:28.641Z,10.54
2023-04-13T08:35:06.942Z,10.80
2023-04-13T08:37:42.870Z,10.83
2023-04-13T08:40:15.136Z,10.77
2023-04-13T08:42:48.128Z,10.63
2023-04-13T08:45:21.240Z,10.53
2023-04-13T08:47:53.401Z,10.43
2023-04-13T08:50:29.370Z,10.27
2023-04-13T08:53:01.821Z,10.12
2023-04-13T08:55:33.965Z,10.29
2023-04-13T08:58:29.615Z,10.51
2023-04-13T09:01:02.260Z,10.71
2023-04-13T09:03:54.104Z,10.97
2023-04-13T09:06:33.340Z,11.07
2023-04-13T09:09:10.876Z,11.04
2023-04-13T09:11:43.749Z,10.82
2023-04-13T09:14:20.626Z,10.64
2023-04-13T09:16:53.108Z,12.02
2023-04-13T09:19:33.377Z,13.79
2023-04-13T09:22:16.338Z,14.97
2023-04-13T09:24:49.196Z,15.14
2023-04-13T09:27:23.772Z,15.95
2023-04-13T09:29:56.637Z,15.48
2023-04-13T09:32:29.460Z,14.73
2023-04-13T09:35:08.550Z,13.17
2023-04-13T09:37:43.711Z,12.40
2023-04-13T09:40:19.087Z,12.01
2023-04-13T09:46:18.236Z,10.97
2023-04-13T09:49:06.339Z,11.11
2023-04-13T09:51:46.268Z,11.07
2023-04-13T09:54:23.016Z,11.37
2023-04-13T09:56:56.528Z,11.84
2023-04-13T09:59:30.213Z,11.66
2023-04-13T10:02:06.860Z,11.59
2023-04-13T10:04:44.051Z,11.86
2023-04-13T10:07:16.632Z,12.19
2023-04-13T10:09:51.335Z,12.57
2023-04-13T10:12:27.519Z,12.35
2023-04-13T10:15:37.905Z,12.17
2023-04-13T10:18:38.768Z,11.79
2023-04-13T10:21:13.207Z,11.38
2023-04-13T10:23:46.321Z,11.10
2023-04-13T10:26:18.431Z,11.15
2023-04-13T10:28:50.745Z,11.15
2023-04-13T10:31:23.089Z,11.13
2023-04-13T10:33:57.351Z,11.41
2023-04-13T10:36:44.499Z,11.57
2023-04-13T10:39:26.032Z,11.75
2023-04-13T10:45:02.504Z,11.79
2023-04-13T10:47:37.437Z,11.44
2023-04-13T10:50:22.809Z,11.52
2023-04-13T10:53:07.041Z,12.03
2023-04-13T10:55:39.157Z,13.82
2023-04-13T10:58:19.521Z,16.10
2023-04-13T11:00:52.458Z,16.56
2023-04-13T11:03:28.706Z,17.34
2023-04-13T11:06:06.491Z,17.43
2023-04-13T11:08:40.437Z,17.20
2023-04-13T11:11:16.333Z,16.33
2023-04-13T11:13:51.547Z,14.54
2023-04-13T11:16:23.821Z,13.13
2023-04-13T11:19:06.200Z,11.81
2023-04-13T11:21:38.636Z,11.61
2023-04-13T11:24:48.778Z,12.05
2023-04-13T11:27:24.420Z,13.61
2023-04-13T11:30:01.013Z,15.70
2023-04-13T11:32:45.625Z,16.39
2023-04-13T11:35:18.860Z,16.97
2023-04-13T11:37:54.797Z,15.75
2023-04-13T11:40:27.996Z,14.33
2023-04-13T11:46:58.101Z,13.62
2023-04-13T11:49:32.160Z,13.57
2023-04-13T11:52:04.696Z,14.86
2023-04-13T11:54:41.108Z,15.11
2023-04-13T11:57:13.978Z,15.85
2023-04-13T12:00:22.564Z,16.78
2023-04-13T12:05:34.429Z,16.52
2023-04-13T12:08:07.397Z,15.96
2023-04-13T12:10:49.528Z,15.61
2023-04-13T12:13:50.350Z,15.61
2023-04-13T12:19:12.690Z,14.53
2023-04-13T12:21:55.950Z,14.36
2023-04-13T12:24:38.445Z,13.84
2023-04-13T12:27:18.531Z,13.58
2023-04-13T12:29:51.707Z,13.15
2023-04-13T12:32:25.371Z,12.79
2023-04-13T12:34:57.494Z,12.41
2023-04-13T12:37:29.646Z,12.27
2023-04-13T12:40:02.131Z,12.05
2023-04-13T12:42:34.664Z,11.48
2023-04-13T12:45:07.798Z,10.59
2023-04-13T12:47:40.170Z,10.00
2023-04-13T12:50:13.118Z,9.59
2023-04-13T12:52:45.582Z,9.48
2023-04-13T12:55:18.435Z,9.52
2023-04-13T12:57:50.846Z,9.56
2023-04-13T13:00:23.208Z,9.47
2023-04-13T13:03:10.172Z,9.74
2023-04-13T13:05:48.458Z,10.25
2023-04-13T13:08:20.761Z,10.26
2023-04-13T13:10:52.999Z,10.28
2023-04-13T13:13:25.043Z,10.42
2023-04-13T13:15:57.194Z,11.24
2023-04-13T13:18:38.924Z,12.82
2023-04-13T13:21:21.897Z,13.38
2023-04-13T13:23:53.977Z,14.12
2023-04-13T13:26:30.579Z,15.14
2023-04-13T13:29:12.141Z,16.00
2023-04-13T13:31:44.511Z,16.51
2023-04-13T13:34:16.673Z,17.14
2023-04-13T13:36:49.686Z,17.74
2023-04-13T13:43:15.240Z,17.96
2023-04-13T13:45:48.963Z,17.88
2023-04-13T13:48:22.161Z,17.17
2023-04-13T13:50:56.100Z,17.01
2023-04-13T13:53:28.349Z,17.48
2023-04-13T13:56:02.039Z,17.38
2023-04-13T13:58:34.075Z,17.04
2023-04-13T14:01:07.787Z,16.33
2023-04-13T14:03:39.933Z,16.57
2023-04-13T14:06:12.247Z,15.56
2023-04-13T14:08:44.412Z,15.28
2023-04-13T14:11:16.532Z,14.27
2023-04-13T14:13:49.894Z,13.21
2023-04-13T14:16:23.738Z,12.67
2023-04-13T14:18:56.089Z,12.70
2023-04-13T14:21:28.274Z,12.49
2023-04-13T14:24:00.491Z,12.21
2023-04-13T14:26:36.615Z,12.44
2023-04-13T14:29:09.280Z,12.88
2023-04-13T14:35:03.223Z,13.51
2023-04-13T14:37:35.362Z,13.11
2023-04-13T14:40:17.332Z,12.61
2023-04-13T14:42:52.997Z,12.16
2023-04-13T14:45:25.437Z,11.91
2023-04-13T14:47:57.700Z,11.63
2023-04-13T14:50:30.043Z,11.58
2023-04-13T14:53:04.815Z,11.54
2023-04-13T14:55:37.041Z,11.24
2023-04-13T14:58:09.184Z,11.05
2023-04-13T15:00:42.128Z,11.06
2023-04-13T15:03:17.916Z,10.94
2023-04-13T15:05:51.124Z,10.99
2023-04-13T15:08:23.785Z,10.96
2023-04-13T15:10:56.013Z,11.07
2023-04-13T15:13:28.274Z,11.11
2023-04-13T15:16:00.622Z,11.13
2023-04-13T15:18:32.863Z,11.21
2023-04-13T15:21:05.243Z,11.23
2023-04-13T15:23:37.352Z,11.21
2023-04-13T15:26:16.362Z,11.02
2023-04-13T15:28:48.626Z,10.98
2023-04-13T15:31:23.662Z,11.06
2023-04-13T15:33:55.847Z,11.01
2023-04-13T15:36:28.144Z,11.03
2023-04-13T15:39:01.153Z,10.92
2023-04-13T15:41:33.419Z,10.82
2023-04-13T15:44:05.884Z,10.75
2023-04-13T15:46:38.163Z,10.69
2023-04-13T15:49:13.341Z,10.60
2023-04-13T15:51:45.420Z,10.53
2023-04-13T15:54:17.575Z,10.54
2023-04-13T15:56:49.644Z,10.55
2023-04-13T15:59:21.951Z,10.58
2023-04-13T16:01:54.161Z,10.62
2023-04-13T16:04:26.713Z,10.68
2023-04-13T16:07:11.829Z,10.71
2023-04-13T16:09:48.462Z,10.86
2023-04-13T16:12:20.586Z,11.07
2023-04-13T16:14:59.491Z,11.28
2023-04-13T16:17:32.250Z,11.43
2023-04-13T16:20:11.313Z,11.44
2023-04-13T16:22:49.325Z,11.25
2023-04-13T16:25:21.646Z,11.24
2023-04-13T16:27:54.997Z,11.25
2023-04-13T16:30:31.523Z,11.30
2023-04-13T16:33:05.683Z,11.38
2023-04-13T16:35:38.007Z,11.55
2023-04-13T16:38:10.117Z,11.65
2023-04-13T16:40:42.271Z,11.74
2023-04-13T16:43:14.392Z,11.62
2023-04-13T16:45:46.502Z,11.64
2023-04-13T16:48:18.721Z,11.51
2023-04-13T16:51:01.827Z,11.40
2023-04-13T16:53:41.444Z,11.43
2023-04-13T16:56:15.881Z,11.46
2023-04-13T16:58:50.239Z,11.47
2023-04-13T17:01:22.585Z,11.58
2023-04-13T17:03:55.225Z,11.60
2023-04-13T17:06:31.773Z,11.70
2023-04-13T17:09:07.153Z,11.77
2023-04-13T17:11:41.146Z,11.86
2023-04-13T17:14:13.216Z,11.79
2023-04-13T17:16:45.602Z,11.74
2023-04-13T17:19:21.201Z,11.71
2023-04-13T17:21:56.152Z,11.61
2023-04-13T17:24:32.715Z,11.63
2023-04-13T17:27:05.140Z,11.55
2023-04-13T17:29:38.166Z,11.56
2023-04-13T17:32:10.401Z,11.56
2023-04-13T17:34:44.793Z,11.50
2023-04-13T17:37:18.022Z,11.38
2023-04-13T17:39:51.603Z,11.39
2023-04-13T17:42:23.694Z,11.24
2023-04-13T17:44:56.426Z,11.05
2023-04-13T17:47:28.710Z,10.98
2023-04-13T17:50:00.937Z,10.91
2023-04-13T17:52:33.188Z,10.86
2023-04-13T17:55:06.252Z,10.79
2023-04-13T17:57:44.359Z,10.74
2023-04-13T18:00:17.165Z,10.72
2023-04-13T18:02:50.587Z,10.70
2023-04-13T18:05:23.059Z,10.60
2023-04-13T18:08:01.414Z,10.57
2023-04-13T18:10:33.494Z,10.57
2023-04-13T18:13:05.887Z,10.55
2023-04-13T18:15:39.674Z,10.60
2023-04-13T18:21:00.754Z,10.50
2023-04-13T18:23:33.481Z,10.48
2023-04-13T18:26:06.446Z,10.47
2023-04-13T18:28:38.642Z,10.45
2023-04-13T18:31:11.596Z,10.43
2023-04-13T18:33:44.617Z,10.41
2023-04-13T18:36:18.249Z,10.39
2023-04-13T18:38:54.967Z,10.37
2023-04-13T18:41:27.253Z,10.37
2023-04-13T18:43:59.604Z,10.34
2023-04-13T18:46:31.903Z,10.29
2023-04-13T18:49:04.105Z,10.25
2023-04-13T18:51:36.247Z,10.20
2023-04-13T18:54:08.379Z,10.16
2023-04-13T18:56:40.973Z,10.13
2023-04-13T18:59:13.121Z,10.09
2023-04-13T19:01:46.796Z,10.06
2023-04-13T19:04:19.246Z,10.04
2023-04-13T19:06:53.273Z,9.99
2023-04-13T19:09:34.130Z,9.95
2023-04-13T19:12:07.284Z,9.93
2023-04-13T19:15:31.872Z,9.87
2023-04-13T19:18:04.675Z,9.83
2023-04-13T19:20:46.024Z,9.81
2023-04-13T19:23:18.244Z,9.77
2023-04-13T19:26:05.678Z,9.75
2023-04-13T19:29:08.900Z,9.69
2023-04-13T19:31:46.557Z,9.64
2023-04-13T19:38:02.695Z,9.54
2023-04-13T19:40:34.793Z,9.52
2023-04-13T19:43:06.964Z,9.51
2023-04-13T19:45:40.891Z,9.47
2023-04-13T19:48:13.019Z,9.44
2023-04-13T19:53:35.237Z,9.40
2023-04-13T19:56:08.319Z,9.39
2023-04-13T19:58:40.606Z,9.38
2023-04-13T20:01:13.768Z,9.36
2023-04-13T20:03:46.215Z,9.36
2023-04-13T20:06:19.293Z,9.36
2023-04-13T20:08:51.379Z,9.38
2023-04-13T20:11:23.512Z,9.38
2023-04-13T20:13:55.605Z,9.38
2023-04-13T20:16:27.877Z,9.33
2023-04-13T20:19:00.450Z,9.22
2023-04-13T20:21:34.676Z,9.19
2023-04-13T20:24:06.999Z,9.17
2023-04-13T20:26:40.047Z,9.17
2023-04-13T20:29:12.256Z,9.13
2023-04-13T20:31:44.436Z,9.10
2023-04-13T20:34:16.682Z,9.08
2023-04-13T20:36:48.825Z,9.05
2023-04-13T20:39:25.771Z,9.00
2023-04-13T20:41:58.065Z,8.87
2023-04-13T20:44:30.235Z,8.83
2023-04-13T20:47:03.458Z,8.82
2023-04-13T20:49:37.934Z,8.84
2023-04-13T20:52:14.201Z,8.86
2023-04-13T20:54:51.047Z,8.85
2023-04-13T20:57:23.832Z,8.86
2023-04-13T20:59:56.144Z,8.82
2023-04-13T21:02:29.825Z,8.80
2023-04-13T21:05:03.295Z,8.79
2023-04-13T21:07:36.109Z,8.76
2023-04-13T21:10:10.411Z,8.75
2023-04-13T21:12:44.316Z,8.72
2023-04-13T21:15:19.456Z,8.72
2023-04-13T21:17:53.893Z,8.71
2023-04-13T21:20:26.244Z,8.69
2023-04-13T21:22:58.416Z,8.68
2023-04-13T21:25:30.735Z,8.65
2023-04-13T21:28:03.313Z,8.60
2023-04-13T21:30:37.949Z,8.57
2023-04-13T21:33:10.022Z,8.55
2023-04-13T21:35:42.157Z,8.54
2023-04-13T21:38:14.368Z,8.53
2023-04-13T21:40:51.398Z,8.50
2023-04-13T21:43:23.598Z,8.47
2023-04-13T21:45:55.994Z,8.49
2023-04-13T21:49:36.113Z,8.43
2023-04-13T21:52:10.557Z,8.46
2023-04-13T21:54:42.680Z,8.45
2023-04-13T22:41:47.144Z,8.20
2023-04-13T22:44:19.193Z,8.18
2023-04-13T22:46:54.605Z,8.13
2023-04-13T22:49:31.144Z,8.15
2023-04-13T22:52:03.552Z,8.14
2023-04-13T22:54:35.626Z,8.12
2023-04-13T22:57:07.676Z,8.08
2023-04-13T22:59:40.588Z,8.06
2023-04-13T23:02:12.771Z,8.05
2023-04-13T23:04:45.113Z,7.99
2023-04-13T23:07:17.219Z,7.93
2023-04-13T23:09:53.394Z,7.90
2023-04-13T23:12:26.510Z,7.84
2023-04-13T23:14:58.673Z,7.82
2023-04-13T23:17:30.963Z,7.80
2023-04-13T23:20:08.278Z,7.81
2023-04-13T23:22:40.490Z,7.80
2023-04-13T23:25:12.655Z,7.78
2023-04-13T23:27:44.866Z,7.76
2023-04-13T23:30:17.006Z,7.71
2023-04-13T23:32:49.194Z,7.69
2023-04-13T23:35:21.275Z,7.65
2023-04-13T23:37:53.389Z,7.62
2023-04-13T23:40:25.604Z,7.62
2023-04-13T23:42:57.639Z,7.62
2023-04-13T23:45:29.854Z,7.61
2023-04-13T23:48:02.072Z,7.56
2023-04-13T23:50:34.391Z,7.55
2023-04-13T23:53:06.433Z,7.54
2023-04-13T23:55:38.830Z,7.54
2023-04-13T23:58:10.856Z,7.49
